createdAt,value
2022-07-29T00:02:16.869Z,95457.38
2022-07-29T00:04:44.874Z,95446.03
2022-07-29T00:07:12.939Z,95465.63
2022-07-29T00:09:51.122Z,95474.22
2022-07-29T00:12:26.326Z,95473.84
2022-07-29T00:14:55.563Z,95458.53
2022-07-29T00:17:23.613Z,95469.19
2022-07-29T00:19:51.644Z,95472.31
2022-07-29T00:22:19.868Z,95478.22
2022-07-29T00:24:49.351Z,95479.72
2022-07-29T00:27:18.629Z,95470.28
2022-07-29T00:29:47.879Z,95491.34
2022-07-29T00:32:15.858Z,95478.06
2022-07-29T00:35:01.356Z,95475.69
2022-07-29T00:37:29.652Z,95480.72
2022-07-29T00:39:57.794Z,95476.00
2022-07-29T00:42:25.762Z,95488.09
2022-07-29T00:44:55.197Z,95445.72
2022-07-29T00:47:23.066Z,95482.25
2022-07-29T00:49:51.000Z,95486.19
2022-07-29T00:52:18.914Z,95487.44
2022-07-29T00:54:47.041Z,95491.00
2022-07-29T00:57:15.308Z,95488.25
2022-07-29T00:59:43.334Z,95465.50
2022-07-29T01:02:12.904Z,95484.78
2022-07-29T01:04:42.631Z,95485.50
2022-07-29T01:07:10.804Z,95477.22
2022-07-29T01:09:45.912Z,95477.28
2022-07-29T01:12:17.296Z,95483.94
2022-07-29T01:14:45.577Z,95471.00
2022-07-29T01:17:23.269Z,95477.22
2022-07-29T01:19:59.117Z,95475.22
2022-07-29T01:22:33.901Z,95468.56
2022-07-29T01:25:14.162Z,95466.16
2022-07-29T01:27:53.593Z,95458.28
2022-07-29T01:30:24.769Z,95468.06
2022-07-29T01:33:01.081Z,95463.81
2022-07-29T01:35:35.795Z,95471.94
2022-07-29T01:38:10.508Z,95463.63
2022-07-29T01:40:43.232Z,95459.63
2022-07-29T01:43:14.204Z,95429.00
2022-07-29T01:45:47.369Z,95440.34
2022-07-29T01:48:20.249Z,95447.78
2022-07-29T01:50:51.453Z,95453.25
2022-07-29T01:53:25.717Z,95455.63
2022-07-29T01:55:55.009Z,95463.41
2022-07-29T01:58:27.961Z,95453.09
2022-07-29T02:00:59.357Z,95408.75
2022-07-29T02:03:29.039Z,95450.41
2022-07-29T02:06:00.392Z,95406.94
2022-07-29T02:08:29.928Z,95409.38
2022-07-29T02:10:58.720Z,95426.63
2022-07-29T02:13:28.176Z,95436.91
2022-07-29T02:15:58.785Z,95438.56
2022-07-29T02:18:30.164Z,95437.78
2022-07-29T02:21:00.709Z,95436.19
2022-07-29T02:23:28.997Z,95438.53
2022-07-29T02:25:59.096Z,95446.44
2022-07-29T02:28:29.682Z,95434.34
2022-07-29T02:31:02.929Z,95446.84
2022-07-29T02:33:33.788Z,95428.88
2022-07-29T02:36:03.244Z,95433.50
2022-07-29T02:38:50.100Z,95432.22
2022-07-29T02:41:20.881Z,95422.75
2022-07-29T02:43:50.873Z,95422.75
2022-07-29T02:46:29.207Z,95425.06
2022-07-29T02:49:04.194Z,95418.03
2022-07-29T02:51:44.695Z,95428.56
2022-07-29T02:54:16.858Z,95420.75
2022-07-29T02:56:48.509Z,95434.06
2022-07-29T02:59:18.945Z,95431.28
2022-07-29T03:01:49.190Z,95431.66
2022-07-29T03:04:20.087Z,95419.91
2022-07-29T03:06:48.997Z,95430.06
2022-07-29T03:09:17.139Z,95426.91
2022-07-29T03:11:50.526Z,95397.53
2022-07-29T03:14:21.244Z,95422.66
2022-07-29T03:16:52.111Z,95410.06
2022-07-29T03:19:21.330Z,95435.91
2022-07-29T03:21:50.076Z,95432.31
2022-07-29T03:24:31.872Z,95431.84
2022-07-29T03:27:00.590Z,95433.78
2022-07-29T03:29:33.257Z,95432.97
2022-07-29T03:32:07.360Z,95417.69
2022-07-29T03:34:37.668Z,95423.94
2022-07-29T03:37:06.838Z,95436.03
2022-07-29T03:39:41.498Z,95438.03
2022-07-29T03:42:12.618Z,95419.16
2022-07-29T03:44:43.670Z,95431.28
2022-07-29T03:47:15.927Z,95424.53
2022-07-29T03:49:46.593Z,95431.94
2022-07-29T03:52:14.787Z,95437.84
2022-07-29T03:54:42.871Z,95435.53
2022-07-29T03:57:15.639Z,95449.91
2022-07-29T03:59:44.808Z,95446.47
2022-07-29T04:02:18.844Z,95448.06
2022-07-29T04:04:49.828Z,95451.69
2022-07-29T04:07:17.980Z,95452.84
2022-07-29T04:09:45.849Z,95457.22
2022-07-29T04:12:13.761Z,95445.19
2022-07-29T04:14:41.620Z,95429.53
2022-07-29T04:17:09.702Z,95455.97
2022-07-29T04:19:38.984Z,95449.06
2022-07-29T04:22:06.921Z,95428.75
2022-07-29T04:24:34.804Z,95441.75
2022-07-29T04:27:02.728Z,95445.31
2022-07-29T04:29:30.632Z,95436.38
2022-07-29T04:31:58.537Z,95420.69
2022-07-29T04:34:28.147Z,95442.69
2022-07-29T04:36:57.642Z,95443.50
2022-07-29T04:39:25.610Z,95447.81
2022-07-29T04:41:57.458Z,95454.50
2022-07-29T04:44:28.626Z,95458.44
2022-07-29T04:46:58.474Z,95422.44
2022-07-29T04:49:26.512Z,95454.59
2022-07-29T04:51:54.552Z,95434.25
2022-07-29T04:54:24.286Z,95452.72
2022-07-29T04:56:53.415Z,95457.50
2022-07-29T04:59:22.458Z,95456.25
2022-07-29T05:01:50.392Z,95464.72
2022-07-29T05:04:21.465Z,95456.91
2022-07-29T05:06:49.487Z,95462.56
2022-07-29T05:09:17.420Z,95461.72
2022-07-29T05:11:46.684Z,95458.22
2022-07-29T05:14:14.969Z,95460.47
2022-07-29T05:16:44.436Z,95465.97
2022-07-29T05:19:14.383Z,95433.84
2022-07-29T05:21:43.027Z,95470.22
2022-07-29T05:24:10.888Z,95443.88
2022-07-29T05:26:38.837Z,95460.91
2022-07-29T05:29:08.239Z,95460.91
2022-07-29T05:31:56.128Z,95465.84
2022-07-29T05:34:24.797Z,95468.50
2022-07-29T05:36:52.834Z,95466.31
2022-07-29T05:39:20.734Z,95454.72
2022-07-29T05:41:51.941Z,95450.44
2022-07-29T05:44:21.405Z,95467.41
2022-07-29T05:46:53.347Z,95431.06
2022-07-29T05:49:23.062Z,95466.63
2022-07-29T05:51:55.332Z,95466.97
2022-07-29T05:54:23.294Z,95473.38
2022-07-29T05:56:51.310Z,95473.50
2022-07-29T05:59:19.189Z,95473.44
2022-07-29T06:01:48.588Z,95418.94
2022-07-29T06:04:16.856Z,95466.19
2022-07-29T06:06:45.114Z,95472.78
2022-07-29T06:09:14.366Z,95473.31
2022-07-29T06:11:42.585Z,95476.00
2022-07-29T06:14:10.629Z,95471.56
2022-07-29T06:16:39.142Z,95473.66
2022-07-29T06:19:08.601Z,95460.66
2022-07-29T06:21:38.722Z,95489.06
2022-07-29T06:24:10.667Z,95475.31
2022-07-29T06:26:39.978Z,95483.88
2022-07-29T06:29:08.993Z,95487.78
2022-07-29T06:31:37.049Z,95475.72
2022-07-29T06:34:05.415Z,95479.53
2022-07-29T06:36:37.100Z,95469.66
2022-07-29T06:39:07.814Z,95467.44
2022-07-29T06:41:36.516Z,95470.88
2022-07-29T06:44:05.616Z,95464.31
2022-07-29T06:46:33.909Z,95463.53
2022-07-29T06:49:03.450Z,95456.25
2022-07-29T06:51:31.692Z,95459.44
2022-07-29T06:54:03.412Z,95464.00
2022-07-29T06:56:39.407Z,95458.66
2022-07-29T06:59:09.301Z,95460.09
2022-07-29T07:01:38.726Z,95468.25
2022-07-29T07:04:06.819Z,95473.28
2022-07-29T07:06:34.808Z,95459.19
2022-07-29T07:09:04.189Z,95465.19
2022-07-29T07:11:32.124Z,95451.22
2022-07-29T07:14:03.359Z,95431.75
2022-07-29T07:16:31.979Z,95461.75
2022-07-29T07:19:00.184Z,95458.66
2022-07-29T07:21:30.233Z,95466.34
2022-07-29T07:23:58.718Z,95465.75
2022-07-29T07:26:28.240Z,95461.06
2022-07-29T07:28:56.177Z,95451.94
2022-07-29T07:31:24.183Z,95452.72
2022-07-29T07:33:52.694Z,95460.91
2022-07-29T07:36:20.605Z,95452.97
2022-07-29T07:38:48.525Z,95452.56
2022-07-29T07:41:16.855Z,95447.75
2022-07-29T07:43:46.128Z,95439.41
2022-07-29T07:46:14.074Z,95449.16
2022-07-29T07:48:42.062Z,95443.69
2022-07-29T07:51:10.027Z,95435.63
2022-07-29T07:53:37.936Z,95444.72
2022-07-29T07:56:10.816Z,95421.69
2022-07-29T07:58:40.538Z,95441.00
2022-07-29T08:01:10.676Z,95451.88
2022-07-29T08:03:39.883Z,95457.91
2022-07-29T08:06:07.957Z,95434.59
2022-07-29T08:08:35.953Z,95445.66
2022-07-29T08:11:09.427Z,95443.66
2022-07-29T08:13:38.746Z,95433.50
2022-07-29T08:16:17.497Z,95428.94
2022-07-29T08:18:47.987Z,95441.56
2022-07-29T08:21:17.508Z,95433.25
2022-07-29T08:23:59.588Z,95424.72
2022-07-29T08:26:28.812Z,95443.44
2022-07-29T08:28:56.755Z,95433.28
2022-07-29T08:31:24.760Z,95432.94
2022-07-29T08:33:54.023Z,95443.69
2022-07-29T08:36:23.013Z,95429.03
2022-07-29T08:38:52.009Z,95417.28
2022-07-29T08:41:21.140Z,95429.00
2022-07-29T08:43:49.245Z,95427.72
2022-07-29T08:46:18.127Z,95423.28
2022-07-29T08:48:46.833Z,95421.63
2022-07-29T08:51:18.518Z,95421.88
2022-07-29T08:53:49.296Z,95419.78
2022-07-29T08:56:19.066Z,95427.06
2022-07-29T08:58:50.710Z,95419.91
2022-07-29T09:01:35.911Z,95417.44
2022-07-29T09:04:07.959Z,95423.84
2022-07-29T09:06:41.434Z,95426.47
2022-07-29T09:09:10.365Z,95424.06
2022-07-29T09:11:38.596Z,95408.19
2022-07-29T09:14:06.718Z,95418.38
2022-07-29T09:16:55.557Z,95412.63
2022-07-29T09:19:25.240Z,95423.00
2022-07-29T09:22:03.231Z,95412.16
2022-07-29T09:24:45.421Z,95306.91
2022-07-29T09:27:22.707Z,95410.13
2022-07-29T09:29:58.661Z,95413.09
2022-07-29T09:32:27.246Z,95404.41
2022-07-29T09:35:16.217Z,95404.94
2022-07-29T09:37:46.104Z,95401.69
2022-07-29T09:40:16.850Z,95402.19
2022-07-29T09:42:45.781Z,95400.66
2022-07-29T09:45:13.991Z,95399.88
2022-07-29T09:47:49.812Z,95395.53
2022-07-29T09:50:20.756Z,95387.72
2022-07-29T09:52:51.984Z,95395.03
2022-07-29T09:55:20.254Z,95400.06
2022-07-29T09:57:48.962Z,95382.25
2022-07-29T10:00:18.873Z,95386.50
2022-07-29T10:02:48.561Z,95343.44
2022-07-29T10:05:22.640Z,95390.97
2022-07-29T10:07:54.491Z,95350.00
2022-07-29T10:10:27.353Z,95359.09
2022-07-29T10:13:07.208Z,95352.88
2022-07-29T10:15:40.041Z,95358.38
2022-07-29T10:18:08.860Z,95349.50
2022-07-29T10:20:37.805Z,95346.84
2022-07-29T10:23:07.571Z,95344.84
2022-07-29T10:25:35.678Z,95351.69
2022-07-29T10:28:03.820Z,95352.06
2022-07-29T10:30:33.002Z,95349.09
2022-07-29T10:33:20.197Z,95350.84
2022-07-29T10:36:18.684Z,95340.28
2022-07-29T10:38:54.851Z,95340.56
2022-07-29T10:41:43.912Z,95345.44
2022-07-29T10:47:06.733Z,95333.44
2022-07-29T10:49:35.273Z,95331.69
2022-07-29T10:54:56.365Z,95326.00
2022-07-29T10:57:53.303Z,95300.47
2022-07-29T11:00:34.899Z,95312.59
2022-07-29T11:03:04.559Z,95317.03
2022-07-29T11:05:55.295Z,95308.91
2022-07-29T11:08:28.030Z,95305.66
2022-07-29T11:11:35.274Z,95303.94
2022-07-29T11:14:06.213Z,95299.59
2022-07-29T11:19:52.737Z,95282.06
2022-07-29T11:22:34.879Z,95290.63
2022-07-29T11:25:16.817Z,95293.22
2022-07-29T11:27:46.389Z,95290.63
2022-07-29T11:30:17.467Z,95297.69
2022-07-29T11:32:48.675Z,95277.53
2022-07-29T11:35:36.997Z,95294.47
2022-07-29T11:38:27.894Z,95300.53
2022-07-29T11:41:27.320Z,95293.84
2022-07-29T11:43:56.775Z,95249.97
2022-07-29T11:46:53.982Z,95282.75
2022-07-29T11:49:32.627Z,95287.97
2022-07-29T11:52:13.099Z,95247.56
2022-07-29T11:54:58.109Z,95265.97
2022-07-29T11:57:37.180Z,95275.78
2022-07-29T12:00:10.027Z,95267.44
2022-07-29T12:02:48.174Z,95285.16
2022-07-29T12:05:22.308Z,95274.91
2022-07-29T12:08:12.742Z,95280.72
2022-07-29T12:10:43.327Z,95267.06
2022-07-29T12:13:12.136Z,95264.72
2022-07-29T12:15:46.298Z,95264.44
2022-07-29T12:18:24.255Z,95254.22
2022-07-29T12:21:03.219Z,95258.13
2022-07-29T12:23:34.633Z,95263.72
2022-07-29T12:26:07.595Z,95257.25
2022-07-29T12:28:39.727Z,95263.13
2022-07-29T12:31:08.465Z,95257.34
2022-07-29T12:33:37.876Z,95259.88
2022-07-29T12:36:07.020Z,95262.00
2022-07-29T12:38:36.919Z,95256.72
2022-07-29T12:41:05.404Z,95216.84
2022-07-29T12:43:33.651Z,95211.34
2022-07-29T12:46:14.782Z,95239.59
2022-07-29T12:48:45.526Z,95197.53
2022-07-29T12:51:15.469Z,95232.50
2022-07-29T12:53:43.580Z,95241.44
2022-07-29T12:56:41.783Z,95228.50
2022-07-29T12:59:14.972Z,95223.00
2022-07-29T13:01:43.015Z,95222.91
2022-07-29T13:04:12.362Z,95218.84
2022-07-29T13:06:46.091Z,95214.81
2022-07-29T13:09:20.551Z,95219.84
2022-07-29T13:11:50.423Z,95200.16
2022-07-29T13:14:33.935Z,95198.59
2022-07-29T13:17:03.862Z,95208.13
2022-07-29T13:19:38.340Z,95202.56
2022-07-29T13:22:07.066Z,95202.81
2022-07-29T13:24:35.032Z,95205.53
2022-07-29T13:27:05.590Z,95197.53
2022-07-29T13:29:34.139Z,95205.09
2022-07-29T13:32:02.185Z,95196.25
2022-07-29T13:34:30.037Z,95196.28
2022-07-29T13:36:59.326Z,95198.88
2022-07-29T13:39:27.249Z,95164.84
2022-07-29T13:41:55.460Z,95162.88
2022-07-29T13:44:25.420Z,95193.63
2022-07-29T13:46:53.320Z,95200.97
2022-07-29T13:49:21.321Z,95191.25
2022-07-29T13:51:49.252Z,95182.69
2022-07-29T13:54:18.825Z,95182.47
2022-07-29T13:56:46.740Z,95178.50
2022-07-29T13:59:15.156Z,95177.34
2022-07-29T14:01:43.584Z,95174.41
2022-07-29T14:04:13.869Z,95179.06
2022-07-29T14:06:41.831Z,95176.84
2022-07-29T14:09:10.161Z,95174.94
2022-07-29T14:11:39.713Z,95188.66
2022-07-29T14:14:07.676Z,95092.66
2022-07-29T14:16:39.224Z,95186.28
2022-07-29T14:19:11.032Z,95142.47
2022-07-29T14:21:39.663Z,95186.34
2022-07-29T14:24:16.287Z,95191.59
2022-07-29T14:26:50.824Z,95182.75
2022-07-29T14:29:18.772Z,95181.66
2022-07-29T14:31:46.741Z,95179.97
2022-07-29T14:34:16.425Z,95148.69
2022-07-29T14:36:44.733Z,95175.75
2022-07-29T14:39:12.692Z,95185.88
2022-07-29T14:41:40.586Z,95183.03
2022-07-29T14:44:09.909Z,95174.38
2022-07-29T14:46:37.808Z,95193.59
2022-07-29T14:49:06.606Z,95181.97
2022-07-29T14:51:37.408Z,95181.84
2022-07-29T14:54:05.563Z,95190.78
2022-07-29T14:56:37.107Z,95178.84
2022-07-29T14:59:06.821Z,95183.97
2022-07-29T15:01:36.289Z,95183.63
2022-07-29T15:04:04.392Z,95176.22
2022-07-29T15:06:32.299Z,95178.66
2022-07-29T15:09:00.176Z,95162.94
2022-07-29T15:11:28.038Z,95173.41
2022-07-29T15:13:55.908Z,95168.63
2022-07-29T15:16:23.848Z,95173.47
2022-07-29T15:18:53.260Z,95168.69
2022-07-29T15:21:21.179Z,95169.88
2022-07-29T15:23:49.112Z,95164.84
2022-07-29T15:26:17.039Z,95163.13
2022-07-29T15:28:44.916Z,95157.50
2022-07-29T15:31:13.036Z,95156.13
2022-07-29T15:33:42.025Z,95132.94
2022-07-29T15:36:25.400Z,95124.28
2022-07-29T15:39:00.597Z,95163.22
2022-07-29T15:41:28.499Z,95154.22
2022-07-29T15:43:56.383Z,95156.84
2022-07-29T15:46:41.859Z,95156.75
2022-07-29T15:49:10.207Z,95156.16
2022-07-29T15:51:39.541Z,95156.41
2022-07-29T15:54:07.496Z,95159.06
2022-07-29T15:56:35.485Z,95166.03
2022-07-29T15:59:03.895Z,95159.84
2022-07-29T16:01:31.829Z,95155.50
2022-07-29T16:04:00.017Z,95159.59
2022-07-29T16:06:28.193Z,95166.28
2022-07-29T16:08:58.821Z,95157.78
2022-07-29T16:11:26.684Z,95154.56
2022-07-29T16:13:55.089Z,95129.00
2022-07-29T16:16:23.669Z,95153.94
2022-07-29T16:18:51.775Z,95179.81
2022-07-29T16:21:19.913Z,95170.22
2022-07-29T16:23:47.848Z,95172.38
2022-07-29T16:26:17.105Z,95187.25
2022-07-29T16:28:50.472Z,95179.94
2022-07-29T16:31:22.909Z,95175.91
2022-07-29T16:33:54.972Z,95183.00
2022-07-29T16:36:24.112Z,95176.94
2022-07-29T16:38:52.125Z,95189.00
2022-07-29T16:41:21.393Z,95182.97
2022-07-29T16:43:49.447Z,95179.88
2022-07-29T16:46:19.237Z,95184.63
2022-07-29T16:48:48.000Z,95188.16
2022-07-29T16:51:16.649Z,95186.63
2022-07-29T16:53:44.958Z,95197.53
2022-07-29T16:56:13.183Z,95193.78
2022-07-29T16:58:44.051Z,95181.44
2022-07-29T17:01:12.253Z,95182.81
2022-07-29T17:04:00.887Z,95181.22
2022-07-29T17:06:29.597Z,95161.50
2022-07-29T17:08:57.991Z,95188.78
2022-07-29T17:11:51.913Z,95178.91
2022-07-29T17:14:15.125Z,95173.63
2022-07-29T17:16:43.051Z,95172.97
2022-07-29T17:19:29.848Z,95172.22
2022-07-29T17:22:05.050Z,95169.72
2022-07-29T17:24:38.989Z,95183.22
2022-07-29T17:27:08.285Z,95187.84
2022-07-29T17:29:37.636Z,95196.53
2022-07-29T17:32:07.789Z,95199.25
2022-07-29T17:34:36.309Z,95157.53
2022-07-29T17:37:04.596Z,95177.44
2022-07-29T17:39:32.857Z,95199.91
2022-07-29T17:42:01.824Z,95147.41
2022-07-29T17:44:29.740Z,95197.63
2022-07-29T17:46:59.309Z,95194.22
2022-07-29T17:49:28.222Z,95183.13
2022-07-29T17:52:00.633Z,95202.22
2022-07-29T17:54:28.988Z,95202.94
2022-07-29T17:56:57.394Z,95199.28
2022-07-29T17:59:25.472Z,95173.81
2022-07-29T18:01:53.393Z,95196.88
2022-07-29T18:04:23.591Z,95205.97
2022-07-29T18:06:51.832Z,95201.44
2022-07-29T18:09:19.910Z,95213.31
2022-07-29T18:11:48.871Z,95206.78
2022-07-29T18:14:17.040Z,95211.56
2022-07-29T18:16:45.099Z,95223.19
2022-07-29T18:19:13.155Z,95217.00
2022-07-29T18:21:51.889Z,95222.09
2022-07-29T18:24:25.368Z,95223.88
2022-07-29T18:26:53.657Z,95233.19
2022-07-29T18:29:21.603Z,95207.38
2022-07-29T18:31:49.629Z,95235.75
2022-07-29T18:34:17.872Z,95234.63
2022-07-29T18:36:47.257Z,95229.31
2022-07-29T18:39:19.680Z,95227.75
2022-07-29T18:41:50.283Z,95233.84
2022-07-29T18:44:22.101Z,95229.97
2022-07-29T18:46:51.144Z,95236.53
2022-07-29T18:49:19.442Z,95243.41
2022-07-29T18:51:48.896Z,95244.38
2022-07-29T18:54:17.483Z,95255.31
2022-07-29T18:56:46.145Z,95260.63
2022-07-29T18:59:16.921Z,95257.63
2022-07-29T19:01:45.061Z,95256.72
2022-07-29T19:04:13.053Z,95257.69
2022-07-29T19:06:41.520Z,95235.03
2022-07-29T19:09:11.240Z,95265.28
2022-07-29T19:11:39.745Z,95265.81
2022-07-29T19:14:08.330Z,95271.03
2022-07-29T19:16:36.388Z,95265.69
2022-07-29T19:19:04.786Z,95269.53
2022-07-29T19:21:32.748Z,95264.72
2022-07-29T19:24:06.302Z,95285.13
2022-07-29T19:26:42.076Z,95284.84
2022-07-29T19:29:10.046Z,95231.28
2022-07-29T19:31:38.028Z,95284.34
2022-07-29T19:34:05.934Z,95282.56
2022-07-29T19:36:34.350Z,95268.38
2022-07-29T19:39:03.346Z,95283.94
2022-07-29T19:41:31.529Z,95284.13
2022-07-29T19:44:00.878Z,95284.63
2022-07-29T19:46:29.252Z,95290.28
2022-07-29T19:48:57.693Z,95286.81
2022-07-29T19:51:25.614Z,95261.28
2022-07-29T19:53:53.589Z,95247.81
2022-07-29T19:56:21.515Z,95287.69
2022-07-29T19:58:52.067Z,95292.00
2022-07-29T20:01:22.238Z,95280.59
2022-07-29T20:03:50.268Z,95281.88
2022-07-29T20:06:18.315Z,95274.09
2022-07-29T20:08:46.319Z,95274.50
2022-07-29T20:11:14.328Z,95288.00
2022-07-29T20:13:42.214Z,95284.19
2022-07-29T20:16:10.123Z,95279.50
2022-07-29T20:18:39.430Z,95272.50
2022-07-29T20:21:07.365Z,95279.84
2022-07-29T20:23:35.382Z,95279.13
2022-07-29T20:26:06.096Z,95285.50
2022-07-29T20:28:37.186Z,95288.44
2022-07-29T20:31:05.142Z,95285.81
2022-07-29T20:33:33.083Z,95285.09
2022-07-29T20:36:02.375Z,95295.06
2022-07-29T20:38:30.700Z,95295.56
2022-07-29T20:40:58.897Z,95289.78
2022-07-29T20:43:27.304Z,95293.47
2022-07-29T20:45:55.237Z,95290.97
2022-07-29T20:48:23.162Z,95313.44
2022-07-29T20:50:51.499Z,95300.13
2022-07-29T20:53:20.765Z,95310.88
2022-07-29T20:55:48.809Z,95310.09
2022-07-29T20:58:16.692Z,95314.81
2022-07-29T21:00:44.691Z,95307.81
2022-07-29T21:03:12.612Z,95309.94
2022-07-29T21:05:43.299Z,95298.63
2022-07-29T21:08:12.189Z,95296.44
2022-07-29T21:10:41.500Z,95304.00
2022-07-29T21:13:09.601Z,95303.75
2022-07-29T21:15:38.060Z,95299.28
2022-07-29T21:18:16.188Z,95298.22
2022-07-29T21:20:44.080Z,95304.25
2022-07-29T21:23:11.971Z,95305.94
2022-07-29T21:25:41.285Z,95310.00
2022-07-29T21:28:27.804Z,95304.19
2022-07-29T21:30:56.796Z,95286.06
2022-07-29T21:33:24.957Z,95305.19
2022-07-29T21:38:41.512Z,95305.78
2022-07-29T21:41:12.618Z,95310.25
2022-07-29T21:43:42.273Z,95311.41
2022-07-29T21:46:10.526Z,95312.28
2022-07-29T21:48:43.890Z,95318.25
2022-07-29T21:51:12.516Z,95318.69
2022-07-29T21:53:40.477Z,95304.66
2022-07-29T21:56:14.506Z,95274.34
2022-07-29T21:58:43.268Z,95293.94
2022-07-29T22:01:11.201Z,95311.09
2022-07-29T22:03:39.158Z,95300.94
2022-07-29T22:06:07.232Z,95300.94
2022-07-29T22:08:35.133Z,95315.91
2022-07-29T22:11:03.007Z,95310.41
2022-07-29T22:13:32.238Z,95311.94
2022-07-29T22:16:00.124Z,95309.84
2022-07-29T22:18:28.302Z,95311.72
2022-07-29T22:20:56.774Z,95298.03
2022-07-29T22:23:24.671Z,95310.94
2022-07-29T22:25:52.880Z,95309.31
2022-07-29T22:28:20.750Z,95275.00
2022-07-29T22:30:50.041Z,95330.53
2022-07-29T22:33:18.316Z,95324.22
2022-07-29T22:35:48.874Z,95331.16
2022-07-29T22:38:17.404Z,95323.28
2022-07-29T22:40:45.318Z,95313.00
2022-07-29T22:43:13.242Z,95277.94
2022-07-29T22:45:41.209Z,95266.22
2022-07-29T22:48:10.563Z,95306.19
2022-07-29T22:50:39.528Z,95322.63
2022-07-29T22:53:07.443Z,95316.72
2022-07-29T22:55:35.376Z,95321.88
2022-07-29T22:58:03.232Z,95306.50
2022-07-29T23:00:31.353Z,95317.47
2022-07-29T23:02:59.477Z,95319.44
2022-07-29T23:05:28.765Z,95319.47
2022-07-29T23:07:56.664Z,95310.84
2022-07-29T23:10:24.583Z,95283.63
2022-07-29T23:12:52.511Z,95278.06
2022-07-29T23:15:20.624Z,95310.06
2022-07-29T23:17:48.518Z,95280.16
2022-07-29T23:20:16.424Z,95312.19
2022-07-29T23:22:45.700Z,95317.31
2022-07-29T23:25:13.585Z,95307.50
2022-07-29T23:27:41.792Z,95313.00
2022-07-29T23:30:10.954Z,95313.81
2022-07-29T23:32:38.861Z,95311.41
2022-07-29T23:35:08.485Z,95315.38
2022-07-29T23:37:36.645Z,95291.56
2022-07-29T23:40:09.673Z,95315.50
2022-07-29T23:42:40.228Z,95314.72
2022-07-29T23:45:09.593Z,95313.59
2022-07-29T23:47:37.453Z,95315.69
2022-07-29T23:50:05.621Z,95329.09
2022-07-29T23:52:33.601Z,95324.03
2022-07-29T23:55:37.546Z,95323.31
2022-07-29T23:57:53.217Z,95315.88
